createdAt,value
2019-03-24T00:02:43.492Z,9.05
2019-03-24T00:12:43.533Z,9.03
2019-03-24T00:22:43.544Z,9.07
2019-03-24T00:32:43.550Z,9.05
2019-03-24T00:42:43.509Z,8.98
2019-03-24T00:52:43.502Z,8.93
2019-03-24T01:02:43.531Z,8.91
2019-03-24T01:12:46.473Z,8.92
2019-03-24T01:22:43.507Z,8.93
2019-03-24T01:32:43.521Z,8.87
2019-03-24T01:42:43.538Z,8.74
2019-03-24T01:52:43.547Z,8.66
2019-03-24T02:02:43.549Z,8.63
2019-03-24T02:12:43.488Z,8.57
2019-03-24T02:22:44.592Z,8.51
2019-03-24T02:32:43.685Z,8.49
2019-03-24T02:42:43.606Z,8.48
2019-03-24T02:52:43.553Z,8.43
2019-03-24T03:02:43.533Z,8.31
2019-03-24T03:12:43.581Z,8.12
2019-03-24T03:22:43.488Z,7.99
2019-03-24T03:32:43.687Z,7.94
2019-03-24T03:42:43.499Z,7.96
2019-03-24T03:52:43.529Z,7.82
2019-03-24T04:02:43.599Z,7.69
2019-03-24T04:12:43.531Z,7.64
2019-03-24T04:22:43.607Z,7.59
2019-03-24T04:32:43.530Z,7.50
2019-03-24T04:42:43.549Z,7.51
2019-03-24T04:52:43.481Z,7.45
2019-03-24T05:02:43.516Z,7.38
2019-03-24T05:12:43.533Z,7.32
2019-03-24T05:22:43.507Z,7.33
2019-03-24T05:32:43.464Z,7.14
2019-03-24T05:42:43.590Z,6.96
2019-03-24T05:52:43.512Z,6.78
2019-03-24T06:02:43.465Z,6.70
2019-03-24T06:12:43.499Z,6.63
2019-03-24T06:22:43.515Z,6.70
2019-03-24T06:32:43.556Z,6.65
2019-03-24T06:42:43.538Z,6.57
2019-03-24T06:52:43.598Z,6.47
2019-03-24T07:02:43.452Z,6.49
2019-03-24T07:12:43.544Z,6.43
2019-03-24T07:22:43.463Z,6.52
2019-03-24T07:32:43.513Z,6.75
2019-03-24T07:42:43.507Z,6.68
2019-03-24T08:02:53.715Z,6.89
2019-03-24T08:12:51.761Z,6.92
2019-03-24T08:22:52.527Z,7.19
2019-03-24T08:32:51.703Z,7.66
2019-03-24T08:42:51.682Z,8.37
2019-03-24T08:52:51.645Z,8.89
2019-03-24T09:02:51.645Z,9.15
2019-03-24T09:12:51.572Z,9.09
2019-03-24T09:22:51.536Z,9.07
2019-03-24T09:32:51.493Z,9.11
2019-03-24T09:42:51.572Z,9.32
2019-03-24T09:52:51.508Z,9.78
2019-03-24T10:02:51.634Z,10.28
2019-03-24T10:12:51.857Z,10.13
2019-03-24T10:22:51.667Z,11.29
2019-03-24T10:32:51.655Z,11.15
2019-03-24T10:42:51.610Z,10.75
2019-03-24T10:52:51.611Z,11.18
2019-03-24T11:02:51.714Z,13.03
2019-03-24T11:12:51.675Z,14.58
2019-03-24T11:22:52.561Z,15.60
2019-03-24T11:32:51.646Z,15.94
2019-03-24T11:42:51.682Z,16.26
2019-03-24T11:52:52.756Z,16.09
2019-03-24T12:02:51.671Z,16.08
2019-03-24T12:12:51.637Z,14.15
2019-03-24T12:22:51.661Z,14.25
2019-03-24T12:32:51.779Z,13.94
2019-03-24T12:42:52.963Z,12.85
2019-03-24T12:52:51.698Z,12.21
2019-03-24T13:02:51.736Z,12.33
2019-03-24T13:12:51.648Z,12.31
2019-03-24T13:22:51.685Z,13.29
2019-03-24T13:32:51.685Z,13.28
2019-03-24T13:42:51.957Z,13.24
2019-03-24T13:52:51.652Z,13.06
2019-03-24T14:02:52.256Z,14.31
2019-03-24T14:12:51.619Z,15.44
2019-03-24T14:22:51.695Z,16.15
2019-03-24T14:32:51.935Z,15.80
2019-03-24T14:42:52.534Z,16.44
2019-03-24T14:52:51.710Z,16.09
2019-03-24T15:02:51.704Z,15.72
2019-03-24T15:12:51.651Z,15.95
2019-03-24T15:22:51.572Z,16.10
2019-03-24T15:32:53.485Z,15.70
2019-03-24T15:42:51.670Z,16.02
2019-03-24T15:52:51.949Z,15.79
2019-03-24T16:02:51.598Z,15.76
2019-03-24T16:12:51.738Z,15.09
2019-03-24T16:22:51.793Z,14.52
2019-03-24T16:32:51.701Z,14.97
2019-03-24T16:42:53.095Z,13.96
2019-03-24T16:52:51.665Z,11.63
2019-03-24T17:02:51.661Z,10.81
2019-03-24T17:12:51.671Z,10.36
2019-03-24T17:22:51.666Z,9.98
2019-03-24T17:32:51.876Z,9.75
2019-03-24T17:42:51.729Z,9.26
2019-03-24T17:52:51.777Z,8.70
2019-03-24T18:02:51.707Z,8.28
2019-03-24T18:12:51.687Z,7.87
2019-03-24T18:22:51.728Z,7.61
2019-03-24T18:32:51.702Z,7.39
2019-03-24T18:42:51.687Z,7.07
2019-03-24T18:52:51.633Z,6.79
2019-03-24T19:02:51.727Z,6.53
2019-03-24T19:12:51.641Z,6.44
2019-03-24T19:22:52.255Z,6.26
2019-03-24T19:32:51.650Z,6.23
2019-03-24T19:42:51.671Z,6.31
2019-03-24T19:52:51.929Z,6.34
2019-03-24T20:02:51.718Z,6.20
2019-03-24T20:12:51.723Z,6.05
2019-03-24T20:22:56.592Z,5.82
2019-03-24T20:32:52.418Z,5.74
2019-03-24T20:42:51.781Z,5.63
2019-03-24T20:53:03.349Z,5.48
2019-03-24T21:02:51.697Z,5.32
2019-03-24T21:12:51.605Z,5.15
2019-03-24T21:22:51.570Z,4.98
2019-03-24T21:32:51.757Z,4.78
2019-03-24T21:42:51.650Z,4.81
2019-03-24T21:52:51.745Z,5.02
2019-03-24T22:02:51.633Z,5.03
2019-03-24T22:12:51.672Z,5.02
2019-03-24T22:22:51.676Z,4.90
2019-03-24T22:32:51.576Z,4.87
2019-03-24T22:42:51.651Z,4.95
2019-03-24T22:52:51.659Z,4.89
2019-03-24T23:02:51.621Z,4.87
2019-03-24T23:12:51.586Z,4.88
2019-03-24T23:22:52.686Z,4.82
2019-03-24T23:32:52.717Z,4.96
2019-03-24T23:42:51.642Z,5.07
2019-03-24T23:52:51.748Z,5.18
